Time,TemperatureF,DewpointF,PressureIn,WindDirection,WindDirectionDegrees,WindSpeedMPH,WindSpeedGustMPH,Humidity,HourlyPrecipIn,Conditions,Clouds,dailyrainin,SoftwareType,DateUTC
2013-02-16 08:54:00,22.5,20.3,30.00,WNW,300,0.0,0.0,91,-99.99,,,-99.99,VWS V14.01,2013-02-16 13:54:00,
2013-02-16 08:59:00,22.5,20.3,30.00,WNW,300,0.0,0.0,91,-99.99,,,-99.99,VWS V14.01,2013-02-16 13:59:00,
2013-02-16 09:04:00,22.6,20.3,30.00,WNW,300,0.0,0.0,91,-99.99,,,-99.99,VWS V14.01,2013-02-16 14:04:00,
2013-02-16 09:09:00,22.6,20.3,30.00,WNW,300,0.0,0.0,91,-99.99,,,-99.99,VWS V14.01,2013-02-16 14:09:00,
2013-02-16 09:14:00,22.6,20.1,30.00,WNW,300,0.0,0.0,90,-99.99,,,-99.99,VWS V14.01,2013-02-16 14:14:00,
2013-02-16 09:19:00,22.7,20.2,30.00,WNW,300,0.0,0.0,90,-99.99,,,-99.99,VWS V14.01,2013-02-16 14:19:00,
2013-02-16 09:24:00,22.7,20.2,29.99,WNW,300,0.0,0.0,90,-99.99,,,-99.99,VWS V14.01,2013-02-16 14:24:00,
2013-02-16 09:29:00,22.8,20.4,29.99,WNW,300,0.0,0.0,90,-99.99,,,-99.99,VWS V14.01,2013-02-16 14:29:00,
2013-02-16 09:34:00,23.1,20.8,29.99,WNW,300,0.0,0.0,91,-99.99,,,-99.99,VWS V14.01,2013-02-16 14:34:00,
2013-02-16 09:39:00,23.2,21.0,29.99,WNW,300,0.0,0.0,91,-99.99,,,-99.99,VWS V14.01,2013-02-16 14:39:00,
2013-02-16 09:44:00,23.3,21.0,29.99,WNW,300,0.0,0.0,91,-99.99,,,-99.99,VWS V14.01,2013-02-16 14:44:00,
2013-02-16 09:49:00,23.2,20.9,29.99,WNW,300,0.0,0.0,91,-99.99,,,-99.99,VWS V14.01,2013-02-16 14:49:00,
2013-02-16 09:54:00,23.0,20.4,29.99,WNW,300,0.0,0.0,90,-99.99,,,-99.99,VWS V14.01,2013-02-16 14:54:00,
2013-02-16 09:59:00,22.8,20.0,29.99,WNW,290,0.0,0.0,89,-99.99,,,-99.99,VWS V14.01,2013-02-16 14:59:00,
2013-02-16 10:04:00,22.8,20.0,29.99,NW,314,0.0,0.0,89,-99.99,,,-99.99,VWS V14.01,2013-02-16 15:04:00,
2013-02-16 10:09:00,22.6,19.9,29.99,SW,229,0.0,0.0,89,-99.99,,,-99.99,VWS V14.01,2013-02-16 15:09:00,
2013-02-16 10:14:00,22.4,19.7,29.99,SW,229,0.0,0.0,89,-99.99,,,-99.99,VWS V14.01,2013-02-16 15:14:00,
2013-02-16 10:19:00,22.6,20.0,29.99,SW,229,0.0,0.0,89,-99.99,,,-99.99,VWS V14.01,2013-02-16 15:19:00,
2013-02-16 10:24:00,22.9,20.2,29.99,SW,229,0.0,0.0,89,-99.99,,,-99.99,VWS V14.01,2013-02-16 15:24:00,
2013-02-16 10:29:00,22.9,19.8,29.99,SW,229,0.0,0.0,88,-99.99,,,-99.99,VWS V14.01,2013-02-16 15:29:00,
2013-02-16 10:34:00,23.1,19.4,29.99,SW,229,0.0,0.0,85,-99.99,,,-99.99,VWS V14.01,2013-02-16 15:34:00,
2013-02-16 10:39:00,23.3,19.1,29.98,SW,229,0.0,0.0,84,-99.99,,,-99.99,VWS V14.01,2013-02-16 15:39:00,
2013-02-16 10:44:00,23.3,18.1,29.98,West,277,0.0,0.0,80,-99.99,,,-99.99,VWS V14.01,2013-02-16 15:44:00,
2013-02-16 10:49:00,23.5,18.0,29.98,West,277,0.0,0.0,79,-99.99,,,-99.99,VWS V14.01,2013-02-16 15:49:00,
2013-02-16 10:54:00,23.7,17.7,29.98,West,277,0.0,0.0,77,-99.99,,,-99.99,VWS V14.01,2013-02-16 15:54:00,
2013-02-16 10:59:00,23.9,17.8,29.98,West,277,0.0,0.0,77,-99.99,,,-99.99,VWS V14.01,2013-02-16 15:59:00,
2013-02-16 11:04:00,24.2,18.0,29.98,West,277,0.0,0.0,77,-99.99,,,-99.99,VWS V14.01,2013-02-16 16:04:00,
2013-02-16 11:09:00,24.4,17.8,29.98,West,277,0.0,0.0,75,-99.99,,,-99.99,VWS V14.01,2013-02-16 16:09:00,
2013-02-16 11:14:00,24.7,18.2,29.98,WNW,288,0.0,0.0,76,-99.99,,,-99.99,VWS V14.01,2013-02-16 16:14:00,
2013-02-16 11:19:00,24.7,18.2,29.97,WNW,298,0.0,0.0,76,-99.99,,,-99.99,VWS V14.01,2013-02-16 16:19:00,
2013-02-16 11:24:00,24.7,18.3,29.97,WNW,298,0.0,4.3,76,-99.99,,,-99.99,VWS V14.01,2013-02-16 16:24:00,
2013-02-16 11:29:00,24.7,18.2,29.97,WNW,291,7.5,7.5,76,-99.99,,,-99.99,VWS V14.01,2013-02-16 16:29:00,
2013-02-16 11:34:00,24.7,18.5,29.97,NW,315,0.0,0.0,77,-99.99,,,-99.99,VWS V14.01,2013-02-16 16:34:00,
2013-02-16 11:39:00,24.7,18.4,29.97,NW,315,0.0,0.0,77,-99.99,,,-99.99,VWS V14.01,2013-02-16 16:39:00,
2013-02-16 11:44:00,24.8,18.4,29.97,NNW,329,0.0,0.0,76,-99.99,,,-99.99,VWS V14.01,2013-02-16 16:44:00,
2013-02-16 11:49:00,25.1,18.8,29.97,WNW,297,0.0,0.0,77,-99.99,,,-99.99,VWS V14.01,2013-02-16 16:49:00,
2013-02-16 11:54:00,25.2,18.7,29.96,WSW,243,0.0,1.9,76,-99.99,,,-99.99,VWS V14.01,2013-02-16 16:54:00,
2013-02-16 11:59:00,25.4,18.9,29.96,NW,304,0.0,0.0,76,-99.99,,,-99.99,VWS V14.01,2013-02-16 16:59:00,
2013-02-16 12:04:00,25.5,18.9,29.96,NW,304,0.0,0.0,76,-99.99,,,-99.99,VWS V14.01,2013-02-16 17:04:00,
2013-02-16 12:09:00,25.2,18.3,29.96,WSW,257,0.0,4.8,75,-99.99,,,-99.99,VWS V14.01,2013-02-16 17:09:00,
2013-02-16 12:14:00,25.1,18.5,29.96,WSW,257,4.2,4.5,76,-99.99,,,-99.99,VWS V14.01,2013-02-16 17:14:00,
2013-02-16 12:19:00,25.2,18.6,29.95,West,264,0.0,0.0,76,-99.99,,,-99.99,VWS V14.01,2013-02-16 17:19:00,
2013-02-16 12:24:00,25.5,19.1,29.95,West,264,0.0,0.0,76,-99.99,,,-99.99,VWS V14.01,2013-02-16 17:24:00,
2013-02-16 12:29:00,25.9,19.3,29.95,NW,322,0.0,0.0,76,-99.99,,,-99.99,VWS V14.01,2013-02-16 17:29:00,
2013-02-16 12:34:00,26.0,19.0,29.94,NW,322,0.0,0.0,74,-99.99,,,-99.99,VWS V14.01,2013-02-16 17:34:00,
2013-02-16 12:39:00,25.8,17.2,29.94,SW,221,0.0,0.0,69,-99.99,,,-99.99,VWS V14.01,2013-02-16 17:39:00,
2013-02-16 12:44:00,25.8,16.9,29.94,West,274,0.0,0.0,69,-99.99,,,-99.99,VWS V14.01,2013-02-16 17:44:00,
2013-02-16 12:49:00,25.9,17.2,29.94,NW,309,0.0,0.0,69,-99.99,,,-99.99,VWS V14.01,2013-02-16 17:49:00,
2013-02-16 12:54:00,25.7,16.8,29.94,WNW,288,0.0,0.0,69,-99.99,,,-99.99,VWS V14.01,2013-02-16 17:54:00,
2013-02-16 12:59:00,25.8,17.2,29.93,West,266,0.0,0.0,70,-99.99,,,-99.99,VWS V14.01,2013-02-16 17:59:00,
2013-02-16 13:03:00,25.9,17.7,29.93,WSW,250,0.0,0.0,71,-99.99,,,-99.99,VWS V14.01,2013-02-16 18:03:00,
2013-02-16 13:08:00,25.8,17.1,29.93,West,267,0.0,0.0,69,-99.99,,,-99.99,VWS V14.01,2013-02-16 18:08:00,
2013-02-16 13:13:00,25.7,17.4,29.93,WSW,240,0.0,0.0,70,-99.99,,,-99.99,VWS V14.01,2013-02-16 18:13:00,
2013-02-16 13:18:00,25.6,17.4,29.93,West,280,0.0,0.0,70,-99.99,,,-99.99,VWS V14.01,2013-02-16 18:18:00,
2013-02-16 13:23:00,25.6,17.7,29.93,North,11,0.0,0.0,72,-99.99,,,-99.99,VWS V14.01,2013-02-16 18:23:00,
2013-02-16 13:28:00,25.7,17.9,29.93,West,262,4.3,7.4,72,-99.99,,,-99.99,VWS V14.01,2013-02-16 18:28:00,
2013-02-16 13:33:00,26.0,18.5,29.93,NNE,14,0.0,0.0,73,-99.99,,,-99.99,VWS V14.01,2013-02-16 18:33:00,
2013-02-16 13:38:00,26.1,18.7,29.93,NNE,14,0.0,0.0,73,-99.99,,,-99.99,VWS V14.01,2013-02-16 18:38:00,
2013-02-16 13:43:00,26.3,18.5,29.93,NNE,17,0.0,0.0,72,-99.99,,,-99.99,VWS V14.01,2013-02-16 18:43:00,
2013-02-16 13:48:00,26.2,18.0,29.93,NW,319,0.0,0.0,71,-99.99,,,-99.99,VWS V14.01,2013-02-16 18:48:00,
2013-02-16 13:53:00,26.0,17.8,29.92,SE,135,0.0,2.7,71,-99.99,,,-99.99,VWS V14.01,2013-02-16 18:53:00,
2013-02-16 13:58:00,25.8,17.8,29.92,West,267,0.0,0.0,71,-99.99,,,-99.99,VWS V14.01,2013-02-16 18:58:00,
2013-02-16 14:03:00,25.8,17.8,29.92,West,267,0.0,0.0,71,-99.99,,,-99.99,VWS V14.01,2013-02-16 19:03:00,
2013-02-16 14:08:00,26.1,18.3,29.92,NNW,328,5.6,9.5,72,-99.99,,,-99.99,VWS V14.01,2013-02-16 19:08:00,
2013-02-16 14:13:00,26.3,16.6,29.92,West,276,0.0,0.0,66,-99.99,,,-99.99,VWS V14.01,2013-02-16 19:13:00,
2013-02-16 14:18:00,26.5,17.1,29.91,West,276,0.0,0.0,67,-99.99,,,-99.99,VWS V14.01,2013-02-16 19:18:00,
2013-02-16 14:23:00,26.6,17.0,29.92,WSW,242,0.0,6.2,66,-99.99,,,-99.99,VWS V14.01,2013-02-16 19:23:00,
2013-02-16 14:28:00,26.7,17.4,29.91,WNW,291,0.0,0.0,67,-99.99,,,-99.99,VWS V14.01,2013-02-16 19:28:00,
2013-02-16 14:33:00,26.7,17.0,29.92,WSW,239,2.6,2.6,66,-99.99,,,-99.99,VWS V14.01,2013-02-16 19:33:00,
2013-02-16 14:38:00,26.6,16.9,29.92,WNW,287,0.0,0.0,66,-99.99,,,-99.99,VWS V14.01,2013-02-16 19:38:00,
2013-02-16 14:43:00,26.6,17.1,29.91,WNW,287,0.0,0.0,67,-99.99,,,-99.99,VWS V14.01,2013-02-16 19:43:00,
2013-02-16 14:48:00,26.6,17.5,29.91,West,274,0.0,0.0,68,-99.99,,,-99.99,VWS V14.01,2013-02-16 19:48:00,
2013-02-16 14:53:00,26.4,17.7,29.92,WSW,255,0.0,0.0,69,-99.99,,,-99.99,VWS V14.01,2013-02-16 19:53:00,
2013-02-16 14:58:00,26.2,18.0,29.92,WSW,255,0.0,0.0,71,-99.99,,,-99.99,VWS V14.01,2013-02-16 19:58:00,
2013-02-16 15:03:00,26.0,18.3,29.92,WSW,255,0.0,0.0,72,-99.99,,,-99.99,VWS V14.01,2013-02-16 20:03:00,
2013-02-16 15:08:00,26.1,18.5,29.91,WSW,255,0.0,0.0,72,-99.99,,,-99.99,VWS V14.01,2013-02-16 20:08:00,
2013-02-16 15:13:00,26.1,18.1,29.92,WSW,255,0.0,0.0,71,-99.99,,,-99.99,VWS V14.01,2013-02-16 20:13:00,
2013-02-16 15:18:00,26.1,17.9,29.91,WSW,255,0.0,0.0,71,-99.99,,,-99.99,VWS V14.01,2013-02-16 20:18:00,
2013-02-16 15:23:00,26.1,17.9,29.92,WSW,255,0.0,0.0,71,-99.99,,,-99.99,VWS V14.01,2013-02-16 20:23:00,
2013-02-16 15:28:00,26.2,18.2,29.92,NNE,24,0.0,0.0,71,-99.99,,,-99.99,VWS V14.01,2013-02-16 20:28:00,
2013-02-16 15:33:00,26.2,18.1,29.92,NNE,24,0.0,0.0,71,-99.99,,,-99.99,VWS V14.01,2013-02-16 20:33:00,
2013-02-16 15:38:00,26.3,18.1,29.91,NNE,24,0.0,0.0,71,-99.99,,,-99.99,VWS V14.01,2013-02-16 20:38:00,
2013-02-16 15:43:00,26.3,18.3,29.91,NNE,24,0.0,0.0,71,-99.99,,,-99.99,VWS V14.01,2013-02-16 20:43:00,
2013-02-16 15:48:00,26.5,18.3,29.91,NNE,24,0.0,0.0,71,-99.99,,,-99.99,VWS V14.01,2013-02-16 20:48:00,
2013-02-16 15:53:00,26.7,18.1,29.91,NNE,24,0.0,1.2,70,-99.99,,,-99.99,VWS V14.01,2013-02-16 20:53:00,
2013-02-16 15:58:00,26.7,18.4,29.91,NW,304,5.2,5.7,70,-99.99,,,-99.99,VWS V14.01,2013-02-16 20:58:00,
2013-02-16 16:03:00,26.7,18.9,29.91,West,263,0.0,0.0,72,-99.99,,,-99.99,VWS V14.01,2013-02-16 21:03:00,
2013-02-16 16:08:00,26.5,19.1,29.92,WNW,292,0.0,0.0,73,-99.99,,,-99.99,VWS V14.01,2013-02-16 21:08:00,
2013-02-16 16:13:00,26.1,19.2,29.92,North,353,0.0,3.2,75,-99.99,,,-99.99,VWS V14.01,2013-02-16 21:13:00,
2013-02-16 16:18:00,26.0,19.9,29.93,NNW,336,0.0,0.0,77,-99.99,,,-99.99,VWS V14.01,2013-02-16 21:18:00,
2013-02-16 16:23:00,25.5,20.0,29.93,WNW,287,5.7,5.7,79,-99.99,,,-99.99,VWS V14.01,2013-02-16 21:23:00,
2013-02-16 16:28:00,25.1,20.2,29.92,NW,316,3.4,3.4,81,-99.99,,,-99.99,VWS V14.01,2013-02-16 21:28:00,
2013-02-16 16:33:00,24.5,20.3,29.93,WNW,288,0.0,0.0,84,-99.99,,,-99.99,VWS V14.01,2013-02-16 21:33:00,
2013-02-16 16:38:00,23.9,20.9,29.93,WSW,249,5.0,5.3,88,-99.99,,,-99.99,VWS V14.01,2013-02-16 21:38:00,
2013-02-16 16:43:00,23.6,20.6,29.93,WSW,238,0.0,0.0,88,-99.99,,,-99.99,VWS V14.01,2013-02-16 21:43:00,
2013-02-16 16:48:00,23.3,20.0,29.92,WSW,238,0.0,0.0,87,-99.99,,,-99.99,VWS V14.01,2013-02-16 21:48:00,
2013-02-16 16:53:00,23.4,20.1,29.92,WSW,238,0.0,0.0,87,-99.99,,,-99.99,VWS V14.01,2013-02-16 21:53:00,
2013-02-16 16:58:00,23.5,19.8,29.91,WSW,238,0.0,0.0,86,-99.99,,,-99.99,VWS V14.01,2013-02-16 21:58:00,
2013-02-16 17:03:00,23.7,19.4,29.91,NW,315,0.0,0.0,83,-99.99,,,-99.99,VWS V14.01,2013-02-16 22:03:00,
2013-02-16 17:08:00,24.0,19.2,29.91,NW,315,0.0,0.0,82,-99.99,,,-99.99,VWS V14.01,2013-02-16 22:08:00,
2013-02-16 17:13:00,24.3,18.9,29.92,NW,315,0.0,0.0,80,-99.99,,,-99.99,VWS V14.01,2013-02-16 22:13:00,
2013-02-16 17:18:00,24.4,18.5,29.92,SSW,207,0.0,0.0,78,-99.99,,,-99.99,VWS V14.01,2013-02-16 22:18:00,
2013-02-16 17:23:00,24.7,18.9,29.93,SSW,207,0.0,0.0,78,-99.99,,,-99.99,VWS V14.01,2013-02-16 22:23:00,
2013-02-16 17:28:00,24.8,19.2,29.93,West,273,0.0,0.0,79,-99.99,,,-99.99,VWS V14.01,2013-02-16 22:28:00,
2013-02-16 17:33:00,24.7,19.2,29.93,NNE,22,0.0,4.3,79,-99.99,,,-99.99,VWS V14.01,2013-02-16 22:33:00,
2013-02-16 17:38:00,24.7,19.5,29.92,NW,304,0.0,0.0,80,-99.99,,,-99.99,VWS V14.01,2013-02-16 22:38:00,
2013-02-16 17:43:00,24.5,20.0,29.93,NW,304,0.0,0.0,83,-99.99,,,-99.99,VWS V14.01,2013-02-16 22:43:00,
2013-02-16 17:48:00,24.4,20.4,29.92,NNW,333,3.5,3.5,84,-99.99,,,-99.99,VWS V14.01,2013-02-16 22:48:00,
2013-02-16 17:53:00,24.3,20.5,29.92,NNW,345,0.0,0.0,85,-99.99,,,-99.99,VWS V14.01,2013-02-16 22:53:00,
2013-02-16 17:58:00,24.1,20.7,29.93,NNW,345,0.0,0.0,87,-99.99,,,-99.99,VWS V14.01,2013-02-16 22:58:00,
2013-02-16 18:03:00,24.0,20.9,29.93,NNW,345,0.0,0.0,88,-99.99,,,-99.99,VWS V14.01,2013-02-16 23:03:00,
2013-02-16 18:08:00,23.9,21.0,29.93,NNW,345,0.0,0.0,88,-99.99,,,-99.99,VWS V14.01,2013-02-16 23:08:00,
2013-02-16 18:13:00,23.6,20.8,29.92,NNW,345,0.0,0.0,89,-99.99,,,-99.99,VWS V14.01,2013-02-16 23:13:00,
2013-02-16 18:18:00,23.5,20.7,29.93,NNW,345,0.0,0.0,89,-99.99,,,-99.99,VWS V14.01,2013-02-16 23:18:00,
2013-02-16 18:23:00,23.5,20.7,29.93,NNW,345,0.0,0.0,89,-99.99,,,-99.99,VWS V14.01,2013-02-16 23:23:00,
2013-02-16 18:28:00,23.4,20.2,29.93,West,277,0.0,0.0,87,-99.99,,,-99.99,VWS V14.01,2013-02-16 23:28:00,
2013-02-16 18:33:00,23.3,19.7,29.92,West,277,0.0,0.0,86,-99.99,,,-99.99,VWS V14.01,2013-02-16 23:33:00,
2013-02-16 18:38:00,23.5,20.0,29.92,WSW,256,0.0,0.0,86,-99.99,,,-99.99,VWS V14.01,2013-02-16 23:38:00,
2013-02-16 18:43:00,23.6,20.1,29.92,WSW,256,0.0,0.0,86,-99.99,,,-99.99,VWS V14.01,2013-02-16 23:43:00,
2013-02-16 18:48:00,23.6,19.6,29.92,WSW,256,0.0,0.0,85,-99.99,,,-99.99,VWS V14.01,2013-02-16 23:48:00,
2013-02-16 18:53:00,23.6,18.6,29.93,WNW,300,4.7,6.0,81,-99.99,,,-99.99,VWS V14.01,2013-02-16 23:53:00,
2013-02-16 18:58:00,23.4,18.3,29.93,WNW,300,0.0,4.2,81,-99.99,,,-99.99,VWS V14.01,2013-02-16 23:58:00,
2013-02-16 19:03:00,23.3,18.5,29.93,ENE,77,0.0,0.0,82,-99.99,,,-99.99,VWS V14.01,2013-02-17 00:03:00,
2013-02-16 19:07:00,23.2,19.3,29.94,WNW,284,12.4,12.4,85,-99.99,,,-99.99,VWS V14.01,2013-02-17 00:07:00,
2013-02-16 19:12:00,22.9,19.3,29.94,WSW,250,3.5,3.5,86,-99.99,,,-99.99,VWS V14.01,2013-02-17 00:12:00,
2013-02-16 19:17:00,22.7,19.7,29.94,NNW,345,7.3,7.3,88,-99.99,,,-99.99,VWS V14.01,2013-02-17 00:17:00,
2013-02-16 19:22:00,22.6,20.3,29.93,WNW,288,3.4,3.4,91,-99.99,,,-99.99,VWS V14.01,2013-02-17 00:22:00,
2013-02-16 19:27:00,22.4,20.4,29.93,WNW,298,0.0,0.0,92,-99.99,,,-99.99,VWS V14.01,2013-02-17 00:27:00,
2013-02-16 19:32:00,22.3,20.3,29.93,WNW,300,0.0,0.0,92,-99.99,,,-99.99,VWS V14.01,2013-02-17 00:32:00,
2013-02-16 19:37:00,22.2,20.5,29.93,NW,314,0.0,0.0,93,-99.99,,,-99.99,VWS V14.01,2013-02-17 00:37:00,
2013-02-16 19:42:00,22.0,20.2,29.92,NNW,346,0.0,8.8,93,-99.99,,,-99.99,VWS V14.01,2013-02-17 00:42:00,
2013-02-16 19:47:00,22.0,20.2,29.92,NNW,346,0.0,0.0,93,-99.99,,,-99.99,VWS V14.01,2013-02-17 00:47:00,
2013-02-16 19:52:00,22.0,19.7,29.92,NNW,328,0.0,3.2,91,-99.99,,,-99.99,VWS V14.01,2013-02-17 00:52:00,
2013-02-16 19:57:00,21.8,18.8,29.92,NNW,332,0.0,3.1,88,-99.99,,,-99.99,VWS V14.01,2013-02-17 00:57:00,
2013-02-16 20:02:00,21.8,18.4,29.92,North,4,5.1,6.2,86,-99.99,,,-99.99,VWS V14.01,2013-02-17 01:02:00,
2013-02-16 20:07:00,21.7,18.1,29.92,WNW,295,0.0,3.2,86,-99.99,,,-99.99,VWS V14.01,2013-02-17 01:07:00,
2013-02-16 20:12:00,21.8,18.3,29.92,WNW,295,0.0,0.0,86,-99.99,,,-99.99,VWS V14.01,2013-02-17 01:12:00,
2013-02-16 20:17:00,21.9,18.4,29.92,WNW,284,0.0,0.0,86,-99.99,,,-99.99,VWS V14.01,2013-02-17 01:17:00,
2013-02-16 20:22:00,21.9,18.3,29.92,WNW,284,0.0,0.0,86,-99.99,,,-99.99,VWS V14.01,2013-02-17 01:22:00,
2013-02-16 20:27:00,21.8,18.2,29.92,WNW,284,0.0,0.0,86,-99.99,,,-99.99,VWS V14.01,2013-02-17 01:27:00,
2013-02-16 20:32:00,21.9,18.4,29.92,WNW,284,0.0,0.0,86,-99.99,,,-99.99,VWS V14.01,2013-02-17 01:32:00,
2013-02-16 20:37:00,21.9,18.4,29.92,WNW,284,0.0,0.0,86,-99.99,,,-99.99,VWS V14.01,2013-02-17 01:37:00,
2013-02-16 20:42:00,22.0,18.4,29.92,WNW,284,0.0,0.0,86,-99.99,,,-99.99,VWS V14.01,2013-02-17 01:42:00,
2013-02-16 20:47:00,22.0,18.0,29.92,WNW,283,0.0,3.5,84,-99.99,,,-99.99,VWS V14.01,2013-02-17 01:47:00,
2013-02-16 20:52:00,22.0,17.8,29.92,NNW,343,0.0,0.0,84,-99.99,,,-99.99,VWS V14.01,2013-02-17 01:52:00,
2013-02-16 20:57:00,21.8,17.4,29.91,WNW,292,0.0,4.3,83,-99.99,,,-99.99,VWS V14.01,2013-02-17 01:57:00,
2013-02-16 21:02:00,21.9,17.6,29.91,WSW,246,0.0,0.0,83,-99.99,,,-99.99,VWS V14.01,2013-02-17 02:02:00,
2013-02-16 21:07:00,22.0,17.8,29.91,WSW,246,0.0,0.0,83,-99.99,,,-99.99,VWS V14.01,2013-02-17 02:07:00,
2013-02-16 21:12:00,22.0,17.8,29.91,WSW,246,0.0,0.0,83,-99.99,,,-99.99,VWS V14.01,2013-02-17 02:12:00,
2013-02-16 21:17:00,22.0,17.9,29.91,WSW,246,0.0,0.0,84,-99.99,,,-99.99,VWS V14.01,2013-02-17 02:17:00,
2013-02-16 21:22:00,22.0,17.8,29.91,WSW,246,0.0,0.0,83,-99.99,,,-99.99,VWS V14.01,2013-02-17 02:22:00,
2013-02-16 21:27:00,21.9,17.6,29.91,WSW,246,0.0,0.0,83,-99.99,,,-99.99,VWS V14.01,2013-02-17 02:27:00,
2013-02-16 21:32:00,21.8,17.5,29.91,WSW,246,0.0,0.0,83,-99.99,,,-99.99,VWS V14.01,2013-02-17 02:32:00,
2013-02-16 21:37:00,21.8,17.5,29.91,WSW,246,0.0,0.0,83,-99.99,,,-99.99,VWS V14.01,2013-02-17 02:37:00,
2013-02-16 21:42:00,21.9,17.8,29.90,WSW,246,0.0,0.0,84,-99.99,,,-99.99,VWS V14.01,2013-02-17 02:42:00,
2013-02-16 21:47:00,21.8,17.7,29.90,WSW,246,0.0,0.0,84,-99.99,,,-99.99,VWS V14.01,2013-02-17 02:47:00,
2013-02-16 21:52:00,21.9,17.7,29.90,WSW,246,0.0,0.0,84,-99.99,,,-99.99,VWS V14.01,2013-02-17 02:52:00,
2013-02-16 21:57:00,21.7,17.4,29.90,WSW,246,0.0,0.0,83,-99.99,,,-99.99,VWS V14.01,2013-02-17 02:57:00,
2013-02-16 22:02:00,21.7,17.1,29.90,WSW,246,0.0,0.0,82,-99.99,,,-99.99,VWS V14.01,2013-02-17 03:02:00,
2013-02-16 22:07:00,21.6,16.9,29.90,WSW,246,0.0,0.0,82,-99.99,,,-99.99,VWS V14.01,2013-02-17 03:07:00,
2013-02-16 22:12:00,21.5,16.9,29.89,WSW,246,0.0,0.0,82,-99.99,,,-99.99,VWS V14.01,2013-02-17 03:12:00,
2013-02-16 22:17:00,21.5,16.8,29.89,WSW,246,0.0,0.0,82,-99.99,,,-99.99,VWS V14.01,2013-02-17 03:17:00,
2013-02-16 22:22:00,21.3,16.7,29.89,WSW,246,0.0,0.0,82,-99.99,,,-99.99,VWS V14.01,2013-02-17 03:22:00,